createdAt,value
2018-12-18T00:00:47.927Z,4.00
2018-12-18T00:03:15.446Z,4.00
2018-12-18T00:05:42.943Z,4.00
2018-12-18T00:08:10.473Z,4.00
2018-12-18T00:10:43.515Z,4.00
2018-12-18T00:13:11.048Z,4.00
2018-12-18T00:15:38.544Z,4.00
2018-12-18T00:18:06.071Z,3.90
2018-12-18T00:20:33.564Z,3.90
2018-12-18T00:23:01.091Z,3.90
2018-12-18T00:25:28.620Z,3.90
2018-12-18T00:27:56.115Z,3.90
2018-12-18T00:30:23.640Z,3.90
2018-12-18T00:32:51.130Z,3.90
2018-12-18T00:35:18.651Z,3.90
2018-12-18T00:37:46.143Z,3.90
2018-12-18T00:40:13.666Z,3.90
2018-12-18T00:42:41.155Z,3.90
2018-12-18T00:45:08.684Z,3.90
2018-12-18T00:47:36.183Z,3.90
2018-12-18T00:50:04.071Z,3.80
2018-12-18T00:52:31.573Z,3.90
2018-12-18T00:54:59.071Z,3.90
2018-12-18T00:57:26.600Z,3.90
2018-12-18T00:59:54.098Z,3.90
2018-12-18T01:02:21.699Z,3.90
2018-12-18T01:04:49.194Z,3.90
2018-12-18T01:07:16.719Z,4.00
2018-12-18T01:09:44.218Z,4.00
2018-12-18T01:12:11.747Z,4.10
2018-12-18T01:14:39.395Z,4.00
2018-12-18T01:17:06.930Z,4.10
2018-12-18T01:19:34.427Z,4.10
2018-12-18T01:22:01.939Z,4.10
2018-12-18T01:24:29.471Z,4.10
2018-12-18T01:26:56.970Z,4.20
2018-12-18T01:29:24.499Z,4.20
2018-12-18T01:31:51.995Z,4.20
2018-12-18T01:34:19.525Z,4.20
2018-12-18T01:36:47.031Z,4.20
2018-12-18T01:39:14.559Z,4.30
2018-12-18T01:41:42.051Z,4.30
2018-12-18T01:44:09.583Z,4.30
2018-12-18T01:46:37.083Z,4.30
2018-12-18T01:49:04.604Z,4.30
2018-12-18T01:51:32.111Z,4.30
2018-12-18T01:53:59.639Z,4.30
2018-12-18T01:56:27.143Z,4.30
2018-12-18T01:58:54.667Z,4.30
2018-12-18T02:01:22.163Z,4.30
2018-12-18T02:03:49.682Z,4.30
2018-12-18T02:06:17.184Z,4.30
2018-12-18T02:08:44.716Z,4.30
2018-12-18T02:11:12.218Z,4.30
2018-12-18T02:13:39.738Z,4.30
2018-12-18T02:16:09.214Z,4.30
2018-12-18T02:18:37.300Z,4.30
2018-12-18T02:21:04.806Z,4.30
2018-12-18T02:23:32.330Z,4.30
2018-12-18T02:25:59.822Z,4.30
2018-12-18T02:28:27.350Z,4.30
2018-12-18T02:30:54.843Z,4.30
2018-12-18T02:33:22.367Z,4.30
2018-12-18T02:35:49.865Z,4.40
2018-12-18T02:38:17.395Z,4.40
2018-12-18T02:40:44.890Z,4.40
2018-12-18T02:43:12.418Z,4.40
2018-12-18T02:45:39.926Z,4.40
2018-12-18T02:48:07.447Z,4.40
2018-12-18T02:50:34.944Z,4.40
2018-12-18T02:53:02.475Z,4.40
2018-12-18T02:55:29.970Z,4.40
2018-12-18T02:57:57.505Z,4.50
2018-12-18T03:00:25.003Z,4.50
2018-12-18T03:02:52.538Z,4.50
2018-12-18T03:05:20.040Z,4.50
2018-12-18T03:07:47.567Z,4.50
2018-12-18T03:10:15.063Z,4.60
2018-12-18T03:12:42.595Z,4.50
2018-12-18T03:15:10.090Z,4.50
2018-12-18T03:17:37.625Z,4.60
2018-12-18T03:20:06.981Z,4.60
2018-12-18T03:22:34.518Z,4.50
2018-12-18T03:25:02.315Z,4.50
2018-12-18T03:27:29.843Z,4.50
2018-12-18T03:29:57.351Z,4.50
2018-12-18T03:32:26.560Z,4.50
2018-12-18T03:34:54.064Z,4.40
2018-12-18T03:37:21.587Z,4.30
2018-12-18T03:39:49.092Z,4.20
2018-12-18T03:42:16.640Z,4.20
2018-12-18T03:44:44.145Z,4.10
2018-12-18T03:47:11.684Z,4.00
2018-12-18T03:49:39.183Z,4.00
2018-12-18T03:52:06.717Z,3.90
2018-12-18T03:54:34.215Z,3.90
2018-12-18T03:57:01.747Z,3.90
2018-12-18T03:59:29.248Z,3.90
2018-12-18T04:01:56.752Z,3.80
2018-12-18T04:04:24.284Z,3.80
2018-12-18T04:06:51.783Z,3.80
2018-12-18T04:09:19.315Z,3.80
2018-12-18T04:11:52.532Z,3.80
2018-12-18T04:14:20.064Z,3.80
2018-12-18T04:16:47.559Z,3.80
2018-12-18T04:19:15.096Z,3.70
2018-12-18T04:21:42.675Z,3.80
2018-12-18T04:24:10.206Z,3.80
2018-12-18T04:26:37.711Z,3.80
2018-12-18T04:31:44.323Z,3.90
2018-12-18T04:34:11.847Z,3.90
2018-12-18T04:36:39.351Z,3.90
2018-12-18T04:39:06.879Z,3.90
2018-12-18T04:41:34.375Z,3.90
2018-12-18T04:44:01.899Z,4.00
2018-12-18T04:46:29.400Z,4.10
2018-12-18T04:48:56.945Z,4.00
2018-12-18T04:51:24.447Z,4.10
2018-12-18T04:53:51.976Z,4.10
2018-12-18T04:56:19.483Z,4.20
2018-12-18T04:58:47.012Z,4.20
2018-12-18T05:01:14.515Z,4.20
2018-12-18T05:03:42.044Z,4.20
2018-12-18T05:06:09.663Z,4.20
2018-12-18T05:08:37.200Z,4.20
2018-12-18T05:11:04.703Z,4.20
2018-12-18T05:13:32.231Z,4.20
2018-12-18T05:15:59.735Z,4.30
2018-12-18T05:18:27.271Z,4.20
2018-12-18T05:20:54.775Z,4.20
2018-12-18T05:23:22.303Z,4.20
2018-12-18T05:25:49.800Z,4.20
2018-12-18T05:28:17.339Z,4.20
2018-12-18T05:30:44.851Z,4.20
2018-12-18T05:33:12.360Z,4.10
2018-12-18T05:35:39.892Z,4.10
2018-12-18T05:38:07.395Z,4.10
2018-12-18T05:40:34.928Z,4.10
2018-12-18T05:43:02.431Z,4.00
2018-12-18T05:45:29.963Z,4.10
2018-12-18T05:47:57.464Z,4.00
2018-12-18T05:50:24.995Z,4.10
2018-12-18T05:52:52.501Z,4.10
2018-12-18T05:55:20.040Z,4.10
2018-12-18T05:57:47.535Z,4.10
2018-12-18T06:00:15.072Z,4.10
2018-12-18T06:02:42.569Z,4.10
2018-12-18T06:05:10.106Z,4.10
2018-12-18T06:07:37.617Z,4.20
2018-12-18T06:10:05.232Z,4.20
2018-12-18T06:12:32.730Z,4.20
2018-12-18T06:15:00.255Z,4.30
2018-12-18T06:17:27.756Z,4.30
2018-12-18T06:19:55.301Z,4.30
2018-12-18T06:22:22.795Z,4.40
2018-12-18T06:24:50.329Z,4.40
2018-12-18T06:27:17.832Z,4.40
2018-12-18T06:29:45.327Z,4.50
2018-12-18T06:32:12.855Z,4.50
2018-12-18T06:34:40.355Z,4.50
2018-12-18T06:37:07.883Z,4.50
2018-12-18T06:39:35.380Z,4.50
2018-12-18T06:42:02.903Z,4.50
2018-12-18T06:44:30.403Z,4.50
2018-12-18T06:46:57.927Z,4.50
2018-12-18T06:49:25.454Z,4.50
2018-12-18T06:51:53.076Z,4.40
2018-12-18T06:54:20.581Z,4.30
2018-12-18T06:56:48.112Z,4.20
2018-12-18T06:59:15.612Z,4.10
2018-12-18T07:01:43.135Z,4.10
2018-12-18T07:04:10.635Z,4.00
2018-12-18T07:06:38.159Z,4.00
2018-12-18T07:09:07.827Z,3.90
2018-12-18T07:11:35.440Z,3.90
2018-12-18T07:14:02.935Z,3.80
2018-12-18T07:16:30.463Z,3.80
2018-12-18T07:18:57.963Z,3.80
2018-12-18T07:21:25.499Z,3.70
2018-12-18T07:23:53.078Z,3.80
2018-12-18T07:26:20.579Z,3.70
2018-12-18T07:28:48.115Z,3.70
2018-12-18T07:31:15.620Z,3.70
2018-12-18T07:33:43.148Z,3.70
2018-12-18T07:36:10.647Z,3.70
2018-12-18T07:38:38.176Z,3.60
2018-12-18T07:41:05.675Z,3.60
2018-12-18T07:43:33.207Z,3.60
2018-12-18T07:46:00.703Z,3.60
2018-12-18T07:48:28.237Z,3.60
2018-12-18T07:50:55.737Z,3.60
2018-12-18T07:53:23.267Z,3.60
2018-12-18T07:55:50.772Z,3.70
2018-12-18T07:58:18.302Z,3.70
2018-12-18T08:00:45.883Z,3.70
2018-12-18T08:03:13.420Z,3.80
2018-12-18T08:05:40.919Z,3.80
2018-12-18T08:08:08.532Z,3.90
2018-12-18T08:10:36.027Z,4.00
2018-12-18T08:13:03.559Z,4.10
2018-12-18T08:15:31.060Z,4.10
2018-12-18T08:17:58.588Z,4.20
2018-12-18T08:20:26.087Z,4.30
2018-12-18T08:22:53.612Z,4.30
2018-12-18T08:25:21.111Z,4.40
2018-12-18T08:27:48.639Z,4.50
2018-12-18T08:30:16.138Z,4.60
2018-12-18T08:32:43.662Z,4.60
2018-12-18T08:35:11.155Z,4.60
2018-12-18T08:37:39.318Z,4.60
2018-12-18T08:40:07.602Z,4.70
2018-12-18T08:42:35.132Z,4.70
2018-12-18T08:45:02.712Z,4.80
2018-12-18T08:47:30.235Z,4.80
2018-12-18T08:49:57.731Z,4.80
2018-12-18T08:52:25.255Z,4.80
2018-12-18T08:54:52.759Z,4.90
2018-12-18T08:57:20.260Z,4.90
2018-12-18T08:59:47.788Z,4.90
2018-12-18T09:02:15.292Z,4.90
2018-12-18T09:04:42.815Z,5.00
2018-12-18T09:07:10.315Z,5.00
2018-12-18T09:09:37.848Z,5.10
2018-12-18T09:12:05.343Z,5.10
2018-12-18T09:14:32.872Z,5.10
2018-12-18T09:17:02.568Z,5.10
2018-12-18T09:19:30.091Z,5.10
2018-12-18T09:21:57.592Z,5.10
2018-12-18T09:24:25.098Z,5.10
2018-12-18T09:26:52.627Z,5.20
2018-12-18T09:29:20.128Z,5.30
2018-12-18T09:31:47.655Z,5.50
2018-12-18T09:34:15.157Z,5.80
2018-12-18T09:36:42.688Z,6.00
2018-12-18T09:39:15.975Z,6.20
2018-12-18T09:41:45.487Z,6.50
2018-12-18T09:44:16.293Z,7.10
2018-12-18T09:46:43.899Z,7.80
2018-12-18T09:49:11.395Z,8.60
2018-12-18T09:51:38.921Z,9.40
2018-12-18T09:54:06.419Z,10.10
2018-12-18T09:56:35.939Z,10.90
2018-12-18T09:59:03.599Z,11.60
2018-12-18T10:01:31.132Z,12.50
2018-12-18T10:03:58.637Z,13.10
2018-12-18T10:06:26.177Z,13.30
2018-12-18T10:08:53.680Z,13.90
2018-12-18T10:11:21.219Z,14.70
2018-12-18T10:13:48.719Z,14.60
2018-12-18T10:16:16.248Z,14.80
2018-12-18T10:18:43.747Z,14.20
2018-12-18T10:21:11.275Z,13.70
2018-12-18T10:23:38.776Z,14.30
2018-12-18T10:26:06.304Z,15.30
2018-12-18T10:28:33.799Z,14.90
2018-12-18T10:31:01.331Z,14.70
2018-12-18T10:33:28.839Z,14.30
2018-12-18T10:36:02.781Z,14.60
2018-12-18T10:38:25.978Z,14.50
2018-12-18T10:40:53.854Z,14.50
2018-12-18T10:43:21.438Z,14.50
2018-12-18T10:45:48.968Z,14.70
2018-12-18T10:48:16.467Z,14.10
2018-12-18T10:50:43.995Z,13.50
2018-12-18T10:53:11.496Z,13.50
2018-12-18T10:55:39.024Z,13.30
2018-12-18T10:58:06.516Z,13.40
2018-12-18T11:03:39.739Z,12.70
2018-12-18T11:06:10.024Z,12.00
2018-12-18T11:08:36.799Z,11.70
2018-12-18T11:11:04.700Z,11.90
2018-12-18T11:13:32.205Z,11.80
2018-12-18T11:15:59.741Z,11.50
2018-12-18T11:18:27.236Z,11.80
2018-12-18T11:20:54.740Z,10.90
2018-12-18T11:23:22.276Z,10.40
2018-12-18T11:25:49.779Z,9.90
2018-12-18T11:28:17.305Z,9.60
2018-12-18T11:30:44.799Z,9.50
2018-12-18T11:33:12.323Z,9.80
2018-12-18T11:35:39.824Z,10.40
2018-12-18T11:38:07.351Z,11.00
2018-12-18T11:40:34.933Z,11.10
2018-12-18T11:43:02.463Z,11.50
2018-12-18T11:45:29.964Z,11.70
2018-12-18T11:47:57.489Z,11.80
2018-12-18T11:50:25.000Z,11.50
2018-12-18T11:52:52.536Z,11.80
2018-12-18T11:55:20.035Z,12.00
2018-12-18T11:57:47.559Z,12.40
2018-12-18T12:00:16.423Z,12.10
2018-12-18T12:02:43.956Z,12.40
2018-12-18T12:05:11.457Z,12.40
2018-12-18T12:07:38.992Z,12.80
2018-12-18T12:10:06.660Z,13.10
2018-12-18T12:12:34.187Z,13.70
2018-12-18T12:15:02.163Z,13.50
2018-12-18T12:17:29.972Z,13.40
2018-12-18T12:19:57.471Z,13.80
2018-12-18T12:22:25.004Z,14.30
2018-12-18T12:24:52.499Z,14.70
2018-12-18T12:27:25.683Z,14.90
2018-12-18T12:29:53.183Z,15.00
2018-12-18T12:32:20.720Z,14.90
2018-12-18T12:34:48.219Z,15.00
2018-12-18T12:37:15.757Z,14.80
2018-12-18T12:39:43.276Z,14.40
2018-12-18T12:42:10.803Z,13.70
2018-12-18T12:44:38.308Z,13.30
2018-12-18T12:47:05.839Z,12.80
2018-12-18T12:49:38.947Z,12.70
2018-12-18T12:52:06.471Z,12.50
2018-12-18T12:54:33.967Z,12.10
2018-12-18T12:57:01.664Z,12.10
2018-12-18T12:59:29.198Z,11.90
2018-12-18T13:01:56.696Z,12.00
2018-12-18T13:04:24.229Z,11.90
2018-12-18T13:06:51.732Z,11.90
2018-12-18T13:09:19.349Z,12.10
2018-12-18T13:11:46.843Z,12.10
2018-12-18T13:14:14.381Z,12.10
2018-12-18T13:16:41.883Z,12.00
2018-12-18T13:19:09.407Z,12.00
2018-12-18T13:21:36.900Z,12.10
2018-12-18T13:24:04.429Z,12.10
2018-12-18T13:26:31.935Z,12.20
2018-12-18T13:29:00.043Z,12.10
2018-12-18T13:31:27.548Z,12.10
2018-12-18T13:33:55.083Z,11.80
2018-12-18T13:36:22.583Z,11.40
2018-12-18T13:38:50.116Z,11.00
2018-12-18T13:41:17.618Z,10.70
2018-12-18T13:43:45.147Z,10.40
2018-12-18T13:46:15.122Z,10.10
2018-12-18T13:48:42.196Z,9.80
2018-12-18T13:51:09.692Z,9.60
2018-12-18T13:53:37.220Z,9.40
2018-12-18T13:56:04.715Z,9.20
2018-12-18T13:58:32.248Z,9.10
2018-12-18T14:00:59.744Z,9.00
2018-12-18T14:03:27.276Z,9.00
2018-12-18T14:05:54.767Z,8.90
2018-12-18T14:08:22.294Z,8.90
2018-12-18T14:10:49.792Z,8.90
2018-12-18T14:13:17.296Z,8.90
2018-12-18T14:15:44.820Z,8.90
2018-12-18T14:18:12.311Z,8.90
2018-12-18T14:20:39.838Z,9.00
2018-12-18T14:23:07.337Z,9.00
2018-12-18T14:25:34.859Z,9.00
2018-12-18T14:28:02.351Z,9.00
2018-12-18T14:30:29.879Z,8.90
2018-12-18T14:32:57.375Z,8.80
2018-12-18T14:35:24.895Z,8.80
2018-12-18T14:37:52.387Z,8.80
2018-12-18T14:40:19.920Z,8.60
2018-12-18T14:42:47.419Z,8.50
2018-12-18T14:45:14.944Z,8.50
2018-12-18T14:47:42.443Z,8.50
2018-12-18T14:50:10.159Z,8.40
2018-12-18T14:52:37.651Z,8.40
2018-12-18T14:55:05.256Z,8.40
2018-12-18T14:57:32.754Z,8.30
2018-12-18T15:00:00.283Z,8.30
2018-12-18T15:02:27.780Z,8.10
2018-12-18T15:04:55.307Z,8.00
2018-12-18T15:07:22.808Z,8.00
2018-12-18T15:09:50.340Z,7.90
2018-12-18T15:12:17.832Z,7.90
2018-12-18T15:14:45.364Z,7.70
2018-12-18T15:17:12.860Z,7.70
2018-12-18T15:19:40.391Z,7.70
2018-12-18T15:22:07.884Z,7.60
2018-12-18T15:24:35.410Z,7.50
2018-12-18T15:27:02.907Z,7.40
2018-12-18T15:29:30.431Z,7.30
2018-12-18T15:31:57.925Z,7.20
2018-12-18T15:34:25.452Z,7.10
2018-12-18T15:36:52.946Z,7.10
2018-12-18T15:39:20.472Z,7.10
2018-12-18T15:41:47.975Z,7.00
2018-12-18T15:44:15.503Z,7.00
2018-12-18T15:46:43.119Z,7.00
2018-12-18T15:49:10.609Z,6.90
2018-12-18T15:51:38.230Z,6.90
2018-12-18T15:54:05.723Z,6.80
2018-12-18T15:56:33.251Z,6.70
2018-12-18T15:59:00.744Z,6.60
2018-12-18T16:01:28.302Z,6.60
2018-12-18T16:03:55.796Z,6.50
2018-12-18T16:06:23.319Z,6.50
2018-12-18T16:08:50.816Z,6.50
2018-12-18T16:11:18.340Z,6.40
2018-12-18T16:13:45.840Z,6.40
2018-12-18T16:16:13.443Z,6.30
2018-12-18T16:18:40.941Z,6.30
2018-12-18T16:21:08.463Z,6.20
2018-12-18T16:23:35.961Z,6.20
2018-12-18T16:26:03.493Z,6.10
2018-12-18T16:28:30.987Z,6.10
2018-12-18T16:30:58.515Z,6.00
2018-12-18T16:33:26.019Z,6.00
2018-12-18T16:35:53.600Z,5.90
2018-12-18T16:38:21.124Z,5.80
2018-12-18T16:40:48.619Z,5.80
2018-12-18T16:43:16.139Z,5.80
2018-12-18T16:45:43.640Z,5.70
2018-12-18T16:48:11.163Z,5.70
2018-12-18T16:50:38.668Z,5.60
2018-12-18T16:53:06.192Z,5.60
2018-12-18T16:55:33.691Z,5.40
2018-12-18T16:58:01.216Z,5.30
2018-12-18T17:00:28.711Z,5.30
2018-12-18T17:02:56.248Z,5.20
2018-12-18T17:05:23.754Z,5.20
2018-12-18T17:07:51.283Z,5.20
2018-12-18T17:10:18.780Z,5.10
2018-12-18T17:12:51.887Z,5.00
2018-12-18T17:15:19.391Z,5.00
2018-12-18T17:17:46.927Z,4.90
2018-12-18T17:20:14.428Z,4.80
2018-12-18T17:22:41.968Z,4.70
2018-12-18T17:25:09.463Z,4.70
2018-12-18T17:27:36.968Z,4.60
2018-12-18T17:30:06.266Z,4.60
2018-12-18T17:32:33.846Z,4.50
2018-12-18T17:35:01.427Z,4.40
2018-12-18T17:37:28.933Z,4.40
2018-12-18T17:39:56.468Z,4.20
2018-12-18T17:42:23.976Z,4.20
2018-12-18T17:44:51.512Z,4.10
2018-12-18T17:47:19.016Z,4.10
2018-12-18T17:49:46.548Z,4.00
2018-12-18T17:52:14.049Z,4.00
2018-12-18T17:54:41.579Z,4.00
2018-12-18T17:57:09.087Z,4.00
2018-12-18T17:59:36.615Z,4.00
2018-12-18T18:02:04.116Z,3.90
2018-12-18T18:04:31.658Z,3.90
2018-12-18T18:06:59.155Z,3.80
2018-12-18T18:09:26.687Z,3.80
2018-12-18T18:11:54.200Z,3.80
2018-12-18T18:14:21.733Z,3.80
2018-12-18T18:16:49.236Z,3.80
2018-12-18T18:19:16.784Z,3.80
2018-12-18T18:21:44.321Z,3.90
2018-12-18T18:24:11.863Z,3.90
2018-12-18T18:26:39.364Z,3.80
2018-12-18T18:29:06.859Z,3.80
2018-12-18T18:31:34.387Z,3.80
2018-12-18T18:34:01.889Z,3.80
2018-12-18T18:36:29.419Z,3.70
2018-12-18T18:38:56.919Z,3.60
2018-12-18T18:41:24.459Z,3.60
2018-12-18T18:43:51.964Z,3.60
2018-12-18T18:46:19.491Z,3.60
2018-12-18T18:48:46.987Z,3.60
2018-12-18T18:51:14.511Z,3.60
2018-12-18T18:53:42.012Z,3.60
2018-12-18T18:56:09.544Z,3.50
2018-12-18T18:58:37.043Z,3.50
2018-12-18T19:01:04.576Z,3.50
2018-12-18T19:03:32.083Z,3.50
2018-12-18T19:05:59.624Z,3.50
2018-12-18T19:08:27.123Z,3.50
2018-12-18T19:10:54.648Z,3.50
2018-12-18T19:13:22.147Z,3.60
2018-12-18T19:15:49.700Z,3.60
2018-12-18T19:18:17.200Z,3.60
2018-12-18T19:20:44.701Z,3.50
2018-12-18T19:23:12.231Z,3.60
2018-12-18T19:25:39.732Z,3.60
2018-12-18T19:28:07.269Z,3.50
2018-12-18T19:30:34.768Z,3.50
2018-12-18T19:33:02.304Z,3.40
2018-12-18T19:35:29.804Z,3.40
2018-12-18T19:38:03.060Z,3.40
2018-12-18T19:40:26.875Z,3.40
2018-12-18T19:42:54.411Z,3.40
2018-12-18T19:45:21.908Z,3.40
2018-12-18T19:47:49.453Z,3.40
2018-12-18T19:50:16.957Z,3.40
2018-12-18T19:52:44.496Z,3.40
2018-12-18T19:55:12.003Z,3.40
2018-12-18T19:57:39.535Z,3.30
2018-12-18T20:00:09.996Z,3.30
2018-12-18T20:02:37.523Z,3.30
2018-12-18T20:05:05.988Z,3.30
2018-12-18T20:07:33.520Z,3.30
2018-12-18T20:10:01.019Z,3.30
2018-12-18T20:12:28.547Z,3.20
2018-12-18T20:14:56.043Z,3.30
2018-12-18T20:17:23.571Z,3.20
2018-12-18T20:19:51.071Z,3.20
2018-12-18T20:22:18.601Z,3.20
2018-12-18T20:24:46.099Z,3.20
2018-12-18T20:27:13.631Z,3.10
2018-12-18T20:29:41.311Z,3.10
2018-12-18T20:32:08.915Z,3.10
2018-12-18T20:34:36.411Z,3.10
2018-12-18T20:37:03.939Z,3.00
2018-12-18T20:39:31.431Z,3.00
2018-12-18T20:41:58.968Z,2.90
2018-12-18T20:44:26.467Z,2.90
2018-12-18T20:46:53.964Z,2.90
2018-12-18T20:49:21.501Z,2.90
2018-12-18T20:51:48.999Z,2.90
2018-12-18T20:54:16.642Z,2.80
2018-12-18T20:56:44.143Z,2.80
2018-12-18T20:59:11.667Z,2.80
2018-12-18T21:01:39.167Z,2.70
2018-12-18T21:04:06.695Z,2.70
2018-12-18T21:06:34.201Z,2.70
2018-12-18T21:09:01.734Z,2.70
2018-12-18T21:11:29.231Z,2.70
2018-12-18T21:13:56.762Z,2.70
2018-12-18T21:16:24.255Z,2.60
2018-12-18T21:18:51.783Z,2.70
2018-12-18T21:21:19.279Z,2.60
2018-12-18T21:23:46.812Z,2.60
2018-12-18T21:26:14.314Z,2.60
2018-12-18T21:28:41.847Z,2.60
2018-12-18T21:31:09.347Z,2.60
2018-12-18T21:33:36.875Z,2.60
2018-12-18T21:36:04.371Z,2.60
2018-12-18T21:38:31.904Z,2.60
2018-12-18T21:40:59.407Z,2.60
2018-12-18T21:43:26.935Z,2.60
2018-12-18T21:45:54.517Z,2.60
2018-12-18T21:48:22.043Z,2.70
2018-12-18T21:50:49.544Z,2.70
2018-12-18T21:53:17.075Z,2.60
2018-12-18T21:55:44.575Z,2.60
2018-12-18T21:58:12.079Z,2.60
2018-12-18T22:00:39.607Z,2.60
2018-12-18T22:03:07.107Z,2.50
2018-12-18T22:05:34.631Z,2.50
2018-12-18T22:08:02.127Z,2.60
2018-12-18T22:10:29.655Z,2.60
2018-12-18T22:12:57.147Z,2.60
2018-12-18T22:15:24.735Z,2.60
2018-12-18T22:17:52.298Z,2.70
2018-12-18T22:20:19.828Z,2.70
2018-12-18T22:22:47.327Z,2.70
2018-12-18T22:25:15.176Z,2.70
2018-12-18T22:27:43.858Z,2.70
2018-12-18T22:30:11.391Z,2.70
2018-12-18T22:32:38.895Z,2.60
2018-12-18T22:35:06.503Z,2.60
2018-12-18T22:37:33.996Z,2.60
2018-12-18T22:40:01.526Z,2.60
2018-12-18T22:42:29.027Z,2.50
2018-12-18T22:44:56.555Z,2.50
2018-12-18T22:47:24.054Z,2.40
2018-12-18T22:49:51.556Z,2.40
2018-12-18T22:52:19.079Z,2.40
2018-12-18T22:54:46.577Z,2.30
2018-12-18T22:57:14.107Z,2.30
2018-12-18T22:59:41.603Z,2.30
2018-12-18T23:02:14.914Z,2.20
2018-12-18T23:04:42.775Z,2.20
2018-12-18T23:07:10.303Z,2.20
2018-12-18T23:09:37.805Z,2.30
2018-12-18T23:12:05.341Z,2.30
2018-12-18T23:14:32.844Z,2.20
2018-12-18T23:17:00.367Z,2.20
2018-12-18T23:19:27.863Z,2.20
2018-12-18T23:21:55.393Z,2.20
2018-12-18T23:24:22.892Z,2.20
2018-12-18T23:26:50.424Z,2.20
2018-12-18T23:29:17.931Z,2.10
2018-12-18T23:31:45.463Z,2.10
2018-12-18T23:34:12.962Z,2.10
2018-12-18T23:36:40.493Z,2.10
2018-12-18T23:39:07.995Z,2.10
2018-12-18T23:41:36.662Z,2.10
2018-12-18T23:44:04.431Z,2.10
2018-12-18T23:46:31.955Z,2.10
2018-12-18T23:48:59.455Z,2.10
2018-12-18T23:51:27.063Z,2.10
2018-12-18T23:53:54.568Z,2.10
2018-12-18T23:56:22.099Z,2.10
2018-12-18T23:58:49.599Z,2.10
